createdAt,value
2019-05-11T00:01:55.545Z,91.80
2019-05-11T00:04:24.447Z,91.50
2019-05-11T00:06:53.344Z,91.00
2019-05-11T00:09:22.902Z,91.80
2019-05-11T00:11:51.869Z,91.40
2019-05-11T00:14:20.771Z,91.40
2019-05-11T00:16:49.707Z,91.00
2019-05-11T00:19:18.605Z,91.00
2019-05-11T00:21:47.544Z,91.10
2019-05-11T00:24:16.530Z,90.50
2019-05-11T00:26:45.489Z,91.10
2019-05-11T00:29:14.412Z,90.90
2019-05-11T00:31:43.401Z,90.30
2019-05-11T00:34:12.294Z,90.40
2019-05-11T00:36:41.218Z,90.80
2019-05-11T00:39:10.140Z,90.80
2019-05-11T00:41:39.066Z,90.70
2019-05-11T00:44:08.023Z,90.90
2019-05-11T00:46:36.924Z,90.60
2019-05-11T00:49:05.810Z,91.00
2019-05-11T00:51:34.780Z,91.50
2019-05-11T00:54:03.697Z,91.80
2019-05-11T00:56:32.582Z,91.30
2019-05-11T00:59:01.542Z,91.40
2019-05-11T01:01:30.581Z,91.20
2019-05-11T01:03:59.471Z,90.40
2019-05-11T01:06:28.444Z,90.30
2019-05-11T01:08:57.458Z,90.40
2019-05-11T01:11:26.373Z,90.30
2019-05-11T01:13:55.338Z,91.00
2019-05-11T01:16:24.252Z,90.90
2019-05-11T01:18:53.144Z,90.90
2019-05-11T01:21:22.090Z,91.30
2019-05-11T01:23:51.007Z,91.30
2019-05-11T01:26:19.901Z,91.70
2019-05-11T01:28:49.946Z,91.70
2019-05-11T01:31:18.908Z,91.40
2019-05-11T01:33:47.822Z,91.30
2019-05-11T01:36:16.885Z,91.10
2019-05-11T01:38:45.806Z,91.10
2019-05-11T01:41:14.704Z,91.70
2019-05-11T01:43:43.665Z,91.30
2019-05-11T01:46:12.579Z,91.60
2019-05-11T01:48:41.866Z,91.40
2019-05-11T01:51:10.832Z,91.90
2019-05-11T01:53:39.744Z,92.00
2019-05-11T01:56:08.644Z,91.60
2019-05-11T01:58:37.596Z,91.50
2019-05-11T02:01:06.637Z,91.50
2019-05-11T02:03:35.830Z,92.00
2019-05-11T02:06:04.887Z,91.60
2019-05-11T02:08:33.796Z,91.90
2019-05-11T02:11:15.397Z,91.90
2019-05-11T02:13:33.393Z,91.40
2019-05-11T02:16:02.342Z,92.30
2019-05-11T02:18:31.643Z,92.40
2019-05-11T02:21:00.591Z,92.30
2019-05-11T02:23:29.489Z,91.80
2019-05-11T02:25:58.411Z,92.20
2019-05-11T02:28:28.345Z,92.00
2019-05-11T02:30:57.545Z,91.70
2019-05-11T02:33:26.444Z,91.80
2019-05-11T02:35:55.377Z,91.60
2019-05-11T02:38:24.298Z,91.40
2019-05-11T02:40:53.425Z,91.60
2019-05-11T02:43:22.409Z,90.90
2019-05-11T02:45:51.408Z,91.00
2019-05-11T02:48:20.487Z,90.90
2019-05-11T02:50:50.750Z,90.80
2019-05-11T02:53:20.892Z,90.90
2019-05-11T02:55:51.051Z,90.70
2019-05-11T02:58:19.974Z,90.80
2019-05-11T03:00:50.726Z,91.10
2019-05-11T03:03:19.692Z,91.20
2019-05-11T03:05:48.626Z,91.30
2019-05-11T03:08:17.549Z,91.10
2019-05-11T03:10:46.491Z,91.00
2019-05-11T03:13:15.420Z,91.10
2019-05-11T03:15:44.389Z,91.20
2019-05-11T03:18:13.321Z,91.00
2019-05-11T03:20:42.255Z,91.00
2019-05-11T03:23:11.153Z,91.30
2019-05-11T03:25:40.113Z,91.40
2019-05-11T03:28:09.056Z,91.10
2019-05-11T03:30:37.963Z,91.10
2019-05-11T03:33:06.904Z,91.70
2019-05-11T03:35:35.842Z,91.40
2019-05-11T03:38:04.846Z,91.10
2019-05-11T03:40:33.787Z,91.30
2019-05-11T03:43:02.789Z,91.30
2019-05-11T03:45:31.685Z,91.10
2019-05-11T03:48:00.643Z,91.10
2019-05-11T03:50:29.540Z,91.50
2019-05-11T03:52:58.429Z,91.80
2019-05-11T03:55:27.423Z,92.30
2019-05-11T03:57:56.424Z,91.60
2019-05-11T04:00:25.355Z,91.50
2019-05-11T04:02:54.301Z,91.80
2019-05-11T04:05:23.195Z,92.00
2019-05-11T04:07:52.107Z,91.80
2019-05-11T04:10:24.875Z,91.80
2019-05-11T04:12:51.628Z,91.90
2019-05-11T04:15:20.648Z,91.50
2019-05-11T04:17:49.631Z,91.30
2019-05-11T04:20:18.596Z,91.60
2019-05-11T04:22:47.505Z,91.30
2019-05-11T04:25:16.461Z,91.30
2019-05-11T04:27:45.362Z,91.60
2019-05-11T04:30:14.369Z,91.40
2019-05-11T04:32:43.345Z,91.30
2019-05-11T04:35:12.315Z,91.70
2019-05-11T04:37:46.164Z,91.40
2019-05-11T04:40:15.174Z,91.80
2019-05-11T04:42:55.177Z,91.20
2019-05-11T04:45:14.724Z,91.10
2019-05-11T04:47:43.697Z,90.90
2019-05-11T04:50:12.785Z,90.90
2019-05-11T04:52:41.886Z,90.80
2019-05-11T04:55:11.016Z,90.70
2019-05-11T04:57:40.078Z,90.50
2019-05-11T05:00:09.370Z,90.40
2019-05-11T05:02:38.305Z,90.10
2019-05-11T05:05:07.445Z,90.10
2019-05-11T05:07:36.372Z,90.10
2019-05-11T05:10:06.526Z,90.10
2019-05-11T05:12:35.434Z,89.90
2019-05-11T05:15:05.551Z,90.20
2019-05-11T05:17:34.531Z,90.20
2019-05-11T05:20:04.153Z,90.40
2019-05-11T05:22:33.047Z,90.00
2019-05-11T05:25:02.006Z,90.20
2019-05-11T05:27:30.906Z,90.30
2019-05-11T05:29:59.979Z,90.10
2019-05-11T05:32:28.978Z,89.70
2019-05-11T05:34:57.935Z,90.20
2019-05-11T05:37:26.825Z,89.70
2019-05-11T05:39:55.769Z,89.80
2019-05-11T05:42:24.730Z,89.50
2019-05-11T05:44:53.680Z,88.90
2019-05-11T05:47:22.635Z,89.20
2019-05-11T05:49:51.539Z,88.90
2019-05-11T05:52:20.543Z,87.70
2019-05-11T05:54:49.454Z,87.10
2019-05-11T05:57:18.365Z,87.90
2019-05-11T05:59:49.148Z,87.40
2019-05-11T06:02:18.093Z,86.50
2019-05-11T06:04:47.048Z,85.00
2019-05-11T06:07:16.017Z,85.50
2019-05-11T06:09:45.006Z,83.90
2019-05-11T06:12:13.947Z,84.10
2019-05-11T06:14:42.919Z,83.20
2019-05-11T06:17:12.247Z,83.00
2019-05-11T06:19:41.164Z,83.20
2019-05-11T06:22:10.348Z,84.10
2019-05-11T06:24:39.254Z,84.30
2019-05-11T06:27:08.268Z,83.10
2019-05-11T06:29:39.479Z,81.90
2019-05-11T06:32:08.418Z,81.70
2019-05-11T06:34:37.404Z,81.50
2019-05-11T06:37:06.320Z,81.60
2019-05-11T06:39:35.259Z,80.90
2019-05-11T06:42:04.209Z,81.40
2019-05-11T06:44:33.142Z,80.20
2019-05-11T06:47:02.168Z,80.40
2019-05-11T06:49:31.132Z,81.00
2019-05-11T06:52:00.136Z,80.00
2019-05-11T06:54:29.068Z,77.40
2019-05-11T06:56:58.020Z,78.10
2019-05-11T06:59:26.966Z,78.10
2019-05-11T07:01:55.871Z,78.20
2019-05-11T07:04:24.825Z,79.10
2019-05-11T07:06:53.731Z,79.80
2019-05-11T07:09:22.646Z,80.60
2019-05-11T07:11:51.649Z,80.90
2019-05-11T07:14:21.579Z,79.80
2019-05-11T07:16:50.725Z,80.00
2019-05-11T07:19:19.672Z,80.20
2019-05-11T07:21:48.621Z,80.10
2019-05-11T07:24:17.536Z,79.90
2019-05-11T07:26:46.571Z,80.30
2019-05-11T07:29:15.480Z,80.20
2019-05-11T07:31:44.471Z,80.30
2019-05-11T07:34:13.409Z,78.00
2019-05-11T07:36:42.296Z,78.20
2019-05-11T07:39:11.206Z,77.60
2019-05-11T07:41:40.184Z,76.70
2019-05-11T07:44:10.081Z,74.90
2019-05-11T07:46:39.240Z,74.80
2019-05-11T07:49:08.842Z,74.70
2019-05-11T07:51:38.897Z,74.80
2019-05-11T07:54:08.523Z,73.10
2019-05-11T07:56:39.010Z,72.20
2019-05-11T07:59:08.443Z,73.30
2019-05-11T08:01:38.723Z,72.80
2019-05-11T08:04:07.992Z,72.50
2019-05-11T08:06:39.036Z,68.50
2019-05-11T08:09:08.531Z,68.30
2019-05-11T08:11:38.955Z,68.90
2019-05-11T08:14:08.074Z,70.40
2019-05-11T08:16:39.053Z,71.00
2019-05-11T08:19:10.594Z,70.30
2019-05-11T08:21:38.809Z,69.30
2019-05-11T08:24:09.149Z,67.70
2019-05-11T08:26:38.717Z,66.40
2019-05-11T08:29:08.174Z,65.50
2019-05-11T08:31:38.546Z,66.80
2019-05-11T08:34:08.861Z,67.20
2019-05-11T08:36:38.103Z,67.70
2019-05-11T08:39:10.847Z,67.60
2019-05-11T08:41:39.804Z,68.20
2019-05-11T08:44:09.012Z,69.40
2019-05-11T08:46:38.783Z,71.80
2019-05-11T08:49:08.678Z,73.00
2019-05-11T08:51:41.168Z,71.60
2019-05-11T08:54:12.780Z,70.00
2019-05-11T08:56:41.821Z,65.70
2019-05-11T08:59:10.782Z,62.10
2019-05-11T09:01:39.724Z,60.20
2019-05-11T09:04:09.031Z,59.90
2019-05-11T09:06:38.192Z,60.20
2019-05-11T09:09:08.882Z,60.30
2019-05-11T09:11:38.957Z,62.60
2019-05-11T09:14:08.447Z,62.30
2019-05-11T09:16:39.014Z,60.00
2019-05-11T09:19:11.773Z,56.90
2019-05-11T09:21:40.725Z,56.80
2019-05-11T09:24:10.607Z,56.10
2019-05-11T09:26:39.675Z,55.40
2019-05-11T09:29:09.996Z,55.90
2019-05-11T09:31:38.986Z,55.60
2019-05-11T09:34:09.061Z,55.00
2019-05-11T09:36:38.852Z,53.60
2019-05-11T09:39:08.890Z,52.00
2019-05-11T09:41:38.438Z,51.40
2019-05-11T09:44:08.925Z,50.30
2019-05-11T09:46:38.569Z,51.40
2019-05-11T09:49:08.183Z,51.80
2019-05-11T09:51:38.104Z,49.20
2019-05-11T09:54:07.970Z,47.80
2019-05-11T09:56:38.173Z,48.40
2019-05-11T09:59:08.826Z,47.50
2019-05-11T10:01:38.093Z,48.70
2019-05-11T10:04:09.044Z,49.60
2019-05-11T10:06:39.110Z,49.30
2019-05-11T10:09:08.306Z,49.70
2019-05-11T10:11:39.692Z,50.20
2019-05-11T10:14:09.242Z,51.00
2019-05-11T10:16:38.784Z,49.90
2019-05-11T10:19:08.466Z,49.80
2019-05-11T10:21:38.429Z,50.00
2019-05-11T10:24:08.650Z,47.80
2019-05-11T10:26:39.151Z,46.90
2019-05-11T10:29:10.416Z,45.00
2019-05-11T10:31:41.692Z,45.30
2019-05-11T10:34:10.937Z,44.10
2019-05-11T10:36:42.039Z,44.20
2019-05-11T10:39:10.957Z,43.90
2019-05-11T10:41:39.850Z,44.30
2019-05-11T10:44:08.818Z,44.20
2019-05-11T10:46:38.182Z,44.20
2019-05-11T10:49:08.070Z,43.00
2019-05-11T10:51:38.327Z,42.60
2019-05-11T10:54:08.753Z,43.60
2019-05-11T10:56:38.829Z,44.50
2019-05-11T10:59:08.141Z,44.80
2019-05-11T11:01:38.002Z,43.30
2019-05-11T11:04:07.844Z,40.30
2019-05-11T11:06:38.691Z,39.10
2019-05-11T11:09:10.049Z,40.30
2019-05-11T11:11:39.026Z,41.40
2019-05-11T11:14:08.698Z,38.40
2019-05-11T11:16:42.412Z,35.40
2019-05-11T11:19:08.750Z,37.30
2019-05-11T11:21:38.312Z,38.60
2019-05-11T11:24:07.766Z,39.10
2019-05-11T11:26:38.036Z,40.30
2019-05-11T11:29:11.941Z,40.90
2019-05-11T11:31:42.760Z,42.90
2019-05-11T11:34:11.632Z,43.20
2019-05-11T11:36:40.571Z,43.10
2019-05-11T11:39:09.525Z,42.40
2019-05-11T11:41:38.419Z,42.70
2019-05-11T11:44:08.094Z,41.90
2019-05-11T11:46:51.390Z,40.20
2019-05-11T11:49:09.529Z,39.60
2019-05-11T11:51:40.387Z,40.20
2019-05-11T11:54:09.303Z,40.40
2019-05-11T11:56:38.357Z,40.60
2019-05-11T11:59:08.496Z,40.10
2019-05-11T12:01:39.152Z,40.10
2019-05-11T12:04:08.440Z,41.20
2019-05-11T12:06:38.593Z,40.80
2019-05-11T12:09:09.193Z,40.80
2019-05-11T12:11:38.323Z,41.40
2019-05-11T12:14:08.713Z,43.10
2019-05-11T12:16:38.831Z,43.30
2019-05-11T12:19:08.340Z,43.10
2019-05-11T12:21:40.613Z,42.20
2019-05-11T12:24:09.868Z,42.20
2019-05-11T12:26:39.122Z,37.60
2019-05-11T12:29:15.045Z,37.10
2019-05-11T12:31:43.954Z,36.80
2019-05-11T12:34:12.903Z,37.10
2019-05-11T12:36:41.832Z,36.40
2019-05-11T12:39:10.742Z,36.50
2019-05-11T12:41:39.718Z,36.50
2019-05-11T12:44:10.547Z,37.40
2019-05-11T12:46:39.638Z,38.40
2019-05-11T12:49:08.592Z,39.60
2019-05-11T12:51:38.263Z,37.20
2019-05-11T12:54:08.320Z,35.30
2019-05-11T12:56:38.279Z,31.90
2019-05-11T12:59:08.227Z,32.20
2019-05-11T13:01:38.149Z,32.00
2019-05-11T13:04:08.914Z,33.10
2019-05-11T13:06:38.585Z,33.10
2019-05-11T13:09:08.624Z,34.70
2019-05-11T13:11:37.948Z,36.00
2019-05-11T13:14:07.967Z,33.70
2019-05-11T13:16:37.873Z,32.90
2019-05-11T13:19:08.306Z,31.20
2019-05-11T13:21:38.277Z,32.20
2019-05-11T13:24:08.328Z,32.30
2019-05-11T13:26:37.980Z,30.50
2019-05-11T13:29:07.736Z,31.60
2019-05-11T13:31:38.500Z,32.10
2019-05-11T13:34:08.361Z,32.80
2019-05-11T13:36:38.120Z,33.10
2019-05-11T13:39:08.917Z,33.40
2019-05-11T13:41:38.408Z,34.10
2019-05-11T13:44:08.048Z,35.20
2019-05-11T13:46:38.885Z,35.50
2019-05-11T13:49:08.557Z,35.70
2019-05-11T13:51:38.767Z,35.70
2019-05-11T13:54:08.091Z,36.40
2019-05-11T13:56:37.949Z,36.40
2019-05-11T13:59:10.417Z,36.40
2019-05-11T14:01:40.763Z,36.10
2019-05-11T14:04:09.736Z,36.80
2019-05-11T14:06:38.693Z,37.10
2019-05-11T14:09:08.877Z,37.80
2019-05-11T14:11:39.104Z,37.40
2019-05-11T14:14:08.153Z,38.70
2019-05-11T14:16:37.911Z,38.60
2019-05-11T14:19:08.674Z,38.60
2019-05-11T14:21:38.509Z,37.90
2019-05-11T14:24:07.957Z,39.00
2019-05-11T14:26:38.631Z,39.80
2019-05-11T14:29:08.546Z,40.30
2019-05-11T14:31:38.754Z,40.90
2019-05-11T14:34:08.834Z,41.00
2019-05-11T14:36:38.742Z,40.50
2019-05-11T14:39:08.540Z,38.80
2019-05-11T14:41:38.310Z,39.00
2019-05-11T14:44:08.830Z,38.70
2019-05-11T14:46:38.557Z,40.00
2019-05-11T14:49:08.093Z,40.80
2019-05-11T14:51:39.084Z,40.10
2019-05-11T14:54:08.370Z,39.70
2019-05-11T14:56:38.120Z,41.00
2019-05-11T14:59:08.989Z,39.90
2019-05-11T15:01:38.390Z,39.10
2019-05-11T15:04:09.889Z,40.20
2019-05-11T15:06:38.867Z,40.70
2019-05-11T15:09:08.687Z,41.10
2019-05-11T15:11:38.884Z,41.70
2019-05-11T15:14:08.297Z,42.20
2019-05-11T15:16:38.343Z,41.40
2019-05-11T15:19:08.003Z,41.70
2019-05-11T15:21:38.756Z,41.60
2019-05-11T15:24:09.079Z,40.70
2019-05-11T15:26:38.309Z,40.90
2019-05-11T15:29:08.138Z,41.40
2019-05-11T15:31:38.112Z,41.60
2019-05-11T15:34:08.634Z,41.60
2019-05-11T15:36:38.726Z,42.00
2019-05-11T15:39:08.230Z,40.90
2019-05-11T15:41:38.770Z,42.00
2019-05-11T15:44:11.360Z,46.20
2019-05-11T15:46:39.022Z,50.80
2019-05-11T15:49:08.789Z,52.40
2019-05-11T15:51:41.082Z,54.90
2019-05-11T15:54:08.603Z,57.00
2019-05-11T15:56:38.523Z,58.10
2019-05-11T15:59:08.705Z,58.70
2019-05-11T16:01:40.939Z,58.40
2019-05-11T16:04:09.090Z,58.30
2019-05-11T16:06:38.252Z,59.50
2019-05-11T16:09:08.542Z,61.00
2019-05-11T16:11:38.812Z,59.80
2019-05-11T16:14:08.758Z,59.60
2019-05-11T16:16:39.025Z,58.00
2019-05-11T16:19:14.455Z,57.70
2019-05-11T16:21:39.202Z,58.20
2019-05-11T16:24:08.322Z,58.40
2019-05-11T16:26:37.352Z,58.20
2019-05-11T16:29:08.548Z,56.70
2019-05-11T16:31:37.897Z,57.30
2019-05-11T16:34:08.062Z,56.90
2019-05-11T16:36:38.974Z,56.50
2019-05-11T16:39:10.032Z,55.70
2019-05-11T16:41:38.565Z,56.90
2019-05-11T16:44:07.987Z,58.10
2019-05-11T16:46:38.895Z,58.10
2019-05-11T16:49:10.757Z,57.50
2019-05-11T16:51:38.880Z,56.50
2019-05-11T16:54:08.245Z,56.60
2019-05-11T16:56:38.321Z,55.30
2019-05-11T16:59:08.172Z,55.00
2019-05-11T17:01:37.897Z,54.30
2019-05-11T17:04:07.118Z,54.70
2019-05-11T17:06:38.255Z,55.90
2019-05-11T17:09:08.880Z,53.80
2019-05-11T17:11:38.333Z,54.60
2019-05-11T17:14:08.265Z,53.40
2019-05-11T17:16:38.593Z,52.20
2019-05-11T17:19:08.088Z,52.90
2019-05-11T17:21:38.289Z,53.20
2019-05-11T17:24:08.384Z,53.10
2019-05-11T17:26:38.563Z,51.70
2019-05-11T17:29:09.912Z,51.80
2019-05-11T17:31:38.460Z,51.90
2019-05-11T17:34:08.976Z,51.90
2019-05-11T17:36:37.976Z,53.40
2019-05-11T17:39:08.391Z,54.70
2019-05-11T17:41:38.699Z,56.40
2019-05-11T17:44:08.201Z,57.80
2019-05-11T17:46:38.488Z,58.80
2019-05-11T17:49:07.947Z,58.70
2019-05-11T17:51:37.886Z,58.50
2019-05-11T17:54:10.132Z,59.40
2019-05-11T17:56:40.495Z,60.90
2019-05-11T17:59:11.305Z,62.40
2019-05-11T18:01:40.414Z,61.40
2019-05-11T18:04:09.333Z,62.20
2019-05-11T18:06:39.184Z,61.80
2019-05-11T18:09:08.673Z,61.80
2019-05-11T18:11:38.113Z,62.80
2019-05-11T18:14:08.378Z,62.70
2019-05-11T18:16:37.567Z,63.10
2019-05-11T18:19:09.085Z,62.20
2019-05-11T18:21:40.679Z,62.20
2019-05-11T18:24:09.608Z,60.80
2019-05-11T18:26:38.623Z,61.00
2019-05-11T18:29:08.726Z,61.30
2019-05-11T18:31:38.424Z,61.30
2019-05-11T18:34:09.001Z,61.00
2019-05-11T18:36:38.316Z,60.60
2019-05-11T18:39:08.346Z,60.00
2019-05-11T18:41:39.089Z,59.10
2019-05-11T18:44:08.392Z,59.60
2019-05-11T18:46:38.893Z,59.70
2019-05-11T18:49:08.214Z,59.90
2019-05-11T18:51:37.802Z,60.00
2019-05-11T18:54:09.249Z,59.20
2019-05-11T18:56:38.248Z,59.80
2019-05-11T18:59:09.029Z,59.40
2019-05-11T19:01:38.263Z,59.70
2019-05-11T19:04:07.857Z,60.10
2019-05-11T19:06:37.941Z,60.70
2019-05-11T19:09:07.826Z,60.60
2019-05-11T19:11:38.271Z,60.00
2019-05-11T19:14:08.595Z,61.00
2019-05-11T19:16:38.931Z,60.40
2019-05-11T19:19:08.412Z,61.20
2019-05-11T19:21:37.369Z,59.40
2019-05-11T19:24:09.200Z,61.10
2019-05-11T19:26:36.950Z,61.40
2019-05-11T19:29:05.911Z,58.80
2019-05-11T19:31:35.209Z,57.50
2019-05-11T19:34:04.184Z,58.30
2019-05-11T19:36:33.199Z,60.80
2019-05-11T19:39:02.090Z,59.70
2019-05-11T19:41:31.059Z,58.80
2019-05-11T19:43:59.964Z,58.80
2019-05-11T19:46:28.963Z,58.50
2019-05-11T19:48:58.123Z,58.60
2019-05-11T19:51:29.117Z,58.90
2019-05-11T19:53:57.836Z,59.50
2019-05-11T19:56:28.954Z,60.70
2019-05-11T19:58:58.912Z,60.50
2019-05-11T20:01:28.015Z,60.50
2019-05-11T20:03:57.183Z,60.80
2019-05-11T20:06:28.116Z,61.90
2019-05-11T20:08:58.107Z,62.90
2019-05-11T20:11:27.903Z,63.80
2019-05-11T20:13:59.001Z,63.90
2019-05-11T20:16:27.720Z,62.70
2019-05-11T20:18:57.795Z,63.50
2019-05-11T20:21:29.074Z,62.50
2019-05-11T20:23:57.978Z,62.80
2019-05-11T20:26:28.584Z,64.30
2019-05-11T20:28:58.752Z,63.70
2019-05-11T20:31:27.889Z,65.50
2019-05-11T20:33:56.823Z,65.30
2019-05-11T20:36:25.848Z,65.00
2019-05-11T20:38:54.792Z,64.80
2019-05-11T20:41:23.724Z,65.60
2019-05-11T20:43:52.715Z,65.60
2019-05-11T20:46:21.630Z,66.00
2019-05-11T20:48:50.550Z,66.80
2019-05-11T20:51:33.214Z,66.20
2019-05-11T20:53:50.220Z,67.60
2019-05-11T20:56:19.150Z,66.60
2019-05-11T20:58:59.091Z,67.90
2019-05-11T21:01:28.873Z,67.90
2019-05-11T21:03:58.662Z,68.40
2019-05-11T21:06:29.354Z,67.50
2019-05-11T21:08:58.380Z,68.60
2019-05-11T21:11:27.567Z,68.60
2019-05-11T21:13:56.486Z,71.20
2019-05-11T21:16:25.402Z,70.70
2019-05-11T21:18:54.409Z,68.60
2019-05-11T21:21:23.469Z,70.40
2019-05-11T21:23:52.394Z,70.90
2019-05-11T21:26:21.442Z,72.40
2019-05-11T21:28:50.392Z,71.10
2019-05-11T21:31:19.309Z,71.50
2019-05-11T21:33:48.265Z,73.30
2019-05-11T21:36:17.959Z,73.90
2019-05-11T21:38:48.443Z,74.50
2019-05-11T21:41:17.621Z,73.50
2019-05-11T21:43:48.340Z,73.30
2019-05-11T21:46:18.036Z,75.40
2019-05-11T21:48:47.808Z,76.10
2019-05-11T21:51:18.188Z,76.70
2019-05-11T21:53:48.717Z,78.20
2019-05-11T21:56:18.732Z,76.20
2019-05-11T21:58:48.097Z,78.00
2019-05-11T22:04:03.048Z,77.70
2019-05-11T22:06:31.970Z,78.00
2019-05-11T22:09:00.926Z,78.40
2019-05-11T22:11:30.922Z,79.10
2019-05-11T22:13:59.921Z,79.00
2019-05-11T22:16:30.416Z,78.80
2019-05-11T22:18:59.625Z,78.30
2019-05-11T22:21:28.631Z,79.50
2019-05-11T22:23:58.576Z,80.10
2019-05-11T22:26:28.625Z,80.00
2019-05-11T22:28:57.752Z,80.50
2019-05-11T22:31:28.056Z,79.70
2019-05-11T22:33:58.314Z,79.50
2019-05-11T22:36:28.155Z,79.40
2019-05-11T22:38:58.747Z,79.90
2019-05-11T22:41:28.244Z,80.10
2019-05-11T22:43:57.128Z,80.40
2019-05-11T22:46:28.018Z,80.70
2019-05-11T22:48:58.299Z,80.50
2019-05-11T22:51:28.855Z,80.40
2019-05-11T22:53:59.123Z,81.90
2019-05-11T22:56:28.621Z,81.60
2019-05-11T22:58:58.701Z,81.40
2019-05-11T23:01:28.272Z,82.10
2019-05-11T23:03:58.398Z,82.20
2019-05-11T23:06:27.717Z,81.30
2019-05-11T23:08:58.550Z,81.90
2019-05-11T23:11:28.469Z,81.80
2019-05-11T23:13:57.651Z,82.00
2019-05-11T23:16:28.611Z,83.30
2019-05-11T23:18:57.124Z,82.80
2019-05-11T23:21:30.034Z,83.60
2019-05-11T23:23:58.302Z,82.50
2019-05-11T23:26:28.235Z,83.10
2019-05-11T23:28:57.956Z,81.80
2019-05-11T23:31:27.801Z,81.80
2019-05-11T23:33:57.864Z,82.30
2019-05-11T23:36:27.991Z,81.80
2019-05-11T23:38:58.550Z,83.20
2019-05-11T23:41:28.794Z,82.30
2019-05-11T23:43:58.441Z,83.00
2019-05-11T23:46:28.510Z,83.40
2019-05-11T23:48:58.217Z,83.00
2019-05-11T23:51:28.235Z,82.70
2019-05-11T23:53:58.835Z,82.50
2019-05-11T23:56:28.306Z,82.20
2019-05-11T23:58:57.899Z,82.60
